This is the latest recevied weather packets stored in our database for station/object NW5W-12. If no packets are shown the sender has not sent any weather packets the latest 10 day(s).
| Time | Temp. | Humidity | Pressure | Rain* | Wind** | Luminosity | Snow |
|---|---|---|---|---|---|---|---|
| 1777628931 | 5° C | 48% | 1019 hPa | 0 mm | - | - | - |
| 1777628631 | 5° C | 49% | 1019 hPa | 0 mm | - | - | - |
| 1777628031 | 5° C | 49% | 1019 hPa | 0 mm | - | - | - |
| 1777627731 | 4.44° C | 50% | 1019 hPa | 0 mm | - | - | - |
| 1777627131 | 3.89° C | 52% | 1019 hPa | 0 mm | - | - | - |
| 1777626831 | 3.89° C | 54% | 1019 hPa | 0 mm | - | - | - |
| 1777626531 | 3.33° C | 57% | 1019 hPa | 0 mm | - | - | - |
| 1777626231 | 3.33° C | 57% | 1019 hPa | 0 mm | - | - | - |
| 1777625931 | 3.33° C | 57% | 1019 hPa | 0 mm | - | - | - |
| 1777625631 | 3.33° C | 54% | 1019 hPa | 0 mm | - | - | - |
| 1777625331 | 3.33° C | 53% | 1019 hPa | 0 mm | - | - | - |
| 1777625031 | 3.33° C | 52% | 1019 hPa | 0 mm | - | - | - |
| 1777624731 | 3.33° C | 52% | 1019 hPa | 0 mm | - | - | - |
| 1777624431 | 3.33° C | 52% | 1019 hPa | 0 mm | - | - | - |
| 1777624131 | 3.89° C | 50% | 1019 hPa | 0 mm | - | - | - |
| 1777623831 | 3.89° C | 49% | 1019 hPa | 0 mm | - | - | - |
| 1777623531 | 3.89° C | 48% | 1019.1 hPa | 0 mm | - | - | - |
| 1777623231 | 3.89° C | 47% | 1019.1 hPa | 0 mm | - | - | - |
| 1777622931 | 4.44° C | 47% | 1019.1 hPa | 0 mm | - | - | - |
| 1777622631 | 4.44° C | 46% | 1019.1 hPa | 0 mm | - | - | - |
| 1777622331 | 4.44° C | 46% | 1019.1 hPa | 0 mm | - | - | - |
| 1777622031 | 4.44° C | 45% | 1019 hPa | 0 mm | - | - | - |
| 1777621731 | 5° C | 45% | 1019 hPa | 0 mm | - | - | - |
| 1777621431 | 5° C | 45% | 1019 hPa | 0 mm | - | - | - |
| 1777621131 | 5° C | 45% | 1019 hPa | 0 mm | - | - | - |
* Rain since midnight (hover to see other rain measurements)
** Current wind speed in m/s (hover to see current wind gust speed)